sensor_id;sensor_type;location;lat;lon;timestamp;pressure;altitude;pressure_sealevel;temperature;humidity
50394;BME280;36308;46.312;25.288;2023-10-09T00:00:24;96790.19;;;6.92;66.95
50394;BME280;36308;46.312;25.288;2023-10-09T00:03:17;96788.97;;;6.87;66.97
50394;BME280;36308;46.312;25.288;2023-10-09T00:05:43;96787.56;;;6.85;66.59
50394;BME280;36308;46.312;25.288;2023-10-09T00:08:16;96790.84;;;6.80;66.46
50394;BME280;36308;46.312;25.288;2023-10-09T00:10:44;96791.31;;;6.77;66.35
50394;BME280;36308;46.312;25.288;2023-10-09T00:13:26;96800.34;;;6.76;66.53
50394;BME280;36308;46.312;25.288;2023-10-09T00:15:58;96814.16;;;6.73;66.67
50394;BME280;36308;46.312;25.288;2023-10-09T00:18:34;96813.75;;;6.70;66.75
50394;BME280;36308;46.312;25.288;2023-10-09T00:21:00;96814.78;;;6.68;66.63
50394;BME280;36308;46.312;25.288;2023-10-09T00:23:36;96821.34;;;6.66;67.01
50394;BME280;36308;46.312;25.288;2023-10-09T00:26:02;96822.41;;;6.65;66.96
50394;BME280;36308;46.312;25.288;2023-10-09T00:28:35;96824.47;;;6.63;67.07
50394;BME280;36308;46.312;25.288;2023-10-09T00:31:05;96814.00;;;6.61;67.22
50394;BME280;36308;46.312;25.288;2023-10-09T00:33:33;96812.56;;;6.59;67.13
50394;BME280;36308;46.312;25.288;2023-10-09T00:36:04;96818.56;;;6.54;67.53
50394;BME280;36308;46.312;25.288;2023-10-09T00:38:39;96820.63;;;6.52;67.14
50394;BME280;36308;46.312;25.288;2023-10-09T00:41:05;96822.88;;;6.48;67.14
50394;BME280;36308;46.312;25.288;2023-10-09T00:43:33;96827.22;;;6.43;67.24
50394;BME280;36308;46.312;25.288;2023-10-09T00:46:02;96828.47;;;6.40;67.20
50394;BME280;36308;46.312;25.288;2023-10-09T00:48:59;96820.28;;;6.35;66.95
50394;BME280;36308;46.312;25.288;2023-10-09T00:51:27;96810.22;;;6.31;67.33
50394;BME280;36308;46.312;25.288;2023-10-09T00:57:21;96836.34;;;6.22;67.29
50394;BME280;36308;46.312;25.288;2023-10-09T00:59:53;96838.84;;;6.17;67.26
50394;BME280;36308;46.312;25.288;2023-10-09T01:02:26;96837.00;;;6.11;67.30
50394;BME280;36308;46.312;25.288;2023-10-09T01:05:02;96836.78;;;6.05;67.09
50394;BME280;36308;46.312;25.288;2023-10-09T01:07:38;96832.69;;;6.03;67.20
50394;BME280;36308;46.312;25.288;2023-10-09T01:10:09;96836.00;;;5.98;67.61
50394;BME280;36308;46.312;25.288;2023-10-09T01:12:36;96830.03;;;5.96;67.48
50394;BME280;36308;46.312;25.288;2023-10-09T01:15:09;96825.31;;;5.92;67.17
50394;BME280;36308;46.312;25.288;2023-10-09T01:17:42;96834.97;;;5.86;67.40
50394;BME280;36308;46.312;25.288;2023-10-09T01:20:11;96844.41;;;5.82;67.09
50394;BME280;36308;46.312;25.288;2023-10-09T01:22:42;96843.78;;;5.80;67.23
50394;BME280;36308;46.312;25.288;2023-10-09T01:25:09;96837.22;;;5.76;67.10
50394;BME280;36308;46.312;25.288;2023-10-09T01:27:35;96842.16;;;5.72;66.97
50394;BME280;36308;46.312;25.288;2023-10-09T01:30:05;96834.56;;;5.69;67.27
50394;BME280;36308;46.312;25.288;2023-10-09T01:32:31;96828.22;;;5.63;67.16
50394;BME280;36308;46.312;25.288;2023-10-09T01:35:00;96832.31;;;5.59;66.50
50394;BME280;36308;46.312;25.288;2023-10-09T01:40:09;96838.06;;;5.56;66.81
50394;BME280;36308;46.312;25.288;2023-10-09T01:43:02;96828.63;;;5.54;66.81
50394;BME280;36308;46.312;25.288;2023-10-09T01:45:29;96833.75;;;5.49;66.18
50394;BME280;36308;46.312;25.288;2023-10-09T01:47:55;96832.72;;;5.43;66.13
50394;BME280;36308;46.312;25.288;2023-10-09T01:50:22;96833.97;;;5.40;66.32
50394;BME280;36308;46.312;25.288;2023-10-09T01:52:50;96840.72;;;5.36;66.54
50394;BME280;36308;46.312;25.288;2023-10-09T01:55:19;96851.19;;;5.31;65.80
50394;BME280;36308;46.312;25.288;2023-10-09T01:57:59;96848.13;;;5.28;66.05
50394;BME280;36308;46.312;25.288;2023-10-09T02:00:51;96849.56;;;5.23;65.61
50394;BME280;36308;46.312;25.288;2023-10-09T02:03:21;96849.94;;;5.20;65.67
50394;BME280;36308;46.312;25.288;2023-10-09T02:05:50;96847.06;;;5.15;66.01
50394;BME280;36308;46.312;25.288;2023-10-09T02:08:19;96847.47;;;5.12;66.04
50394;BME280;36308;46.312;25.288;2023-10-09T02:11:00;96849.94;;;5.07;66.35
50394;BME280;36308;46.312;25.288;2023-10-09T02:13:27;96847.88;;;5.02;65.96
50394;BME280;36308;46.312;25.288;2023-10-09T02:15:57;96847.84;;;4.96;66.04
50394;BME280;36308;46.312;25.288;2023-10-09T02:18:38;96854.22;;;4.95;66.52
50394;BME280;36308;46.312;25.288;2023-10-09T02:21:18;96840.03;;;4.88;66.44
50394;BME280;36308;46.312;25.288;2023-10-09T02:23:53;96851.72;;;4.86;66.28
50394;BME280;36308;46.312;25.288;2023-10-09T02:26:22;96862.16;;;4.81;66.24
50394;BME280;36308;46.312;25.288;2023-10-09T02:28:55;96876.50;;;4.80;66.58
50394;BME280;36308;46.312;25.288;2023-10-09T02:31:25;96859.69;;;4.73;66.23
50394;BME280;36308;46.312;25.288;2023-10-09T02:33:52;96870.34;;;4.73;66.44
50394;BME280;36308;46.312;25.288;2023-10-09T02:36:22;96863.78;;;4.69;66.53
50394;BME280;36308;46.312;25.288;2023-10-09T02:38:47;96855.16;;;4.67;66.42
50394;BME280;36308;46.312;25.288;2023-10-09T02:41:15;96858.41;;;4.62;66.33
50394;BME280;36308;46.312;25.288;2023-10-09T02:43:41;96865.78;;;4.60;66.74
50394;BME280;36308;46.312;25.288;2023-10-09T02:46:19;96860.44;;;4.54;66.53
50394;BME280;36308;46.312;25.288;2023-10-09T02:48:49;96864.13;;;4.53;66.35
50394;BME280;36308;46.312;25.288;2023-10-09T02:51:22;96869.84;;;4.50;66.32
50394;BME280;36308;46.312;25.288;2023-10-09T02:53:54;96866.97;;;4.44;66.70
50394;BME280;36308;46.312;25.288;2023-10-09T02:56:21;96871.03;;;4.40;66.87
50394;BME280;36308;46.312;25.288;2023-10-09T02:58:56;96875.13;;;4.36;66.34
50394;BME280;36308;46.312;25.288;2023-10-09T03:01:38;96885.16;;;4.34;66.77
50394;BME280;36308;46.312;25.288;2023-10-09T03:04:04;96886.56;;;4.30;66.47
50394;BME280;36308;46.312;25.288;2023-10-09T03:06:31;96891.44;;;4.27;67.13
50394;BME280;36308;46.312;25.288;2023-10-09T03:08:58;96879.34;;;4.24;66.83
50394;BME280;36308;46.312;25.288;2023-10-09T03:11:24;96877.06;;;4.21;66.59
50394;BME280;36308;46.312;25.288;2023-10-09T03:13:52;96875.00;;;4.16;66.88
50394;BME280;36308;46.312;25.288;2023-10-09T03:16:18;96879.88;;;4.13;66.58
50394;BME280;36308;46.312;25.288;2023-10-09T03:18:47;96890.94;;;4.10;67.23
50394;BME280;36308;46.312;25.288;2023-10-09T03:21:14;96900.31;;;4.05;67.19
50394;BME280;36308;46.312;25.288;2023-10-09T03:23:40;96889.25;;;4.02;66.88
50394;BME280;36308;46.312;25.288;2023-10-09T03:26:06;96893.13;;;3.99;67.45
50394;BME280;36308;46.312;25.288;2023-10-09T03:28:33;96885.50;;;3.96;67.44
50394;BME280;36308;46.312;25.288;2023-10-09T03:30:59;96898.19;;;3.94;67.14
50394;BME280;36308;46.312;25.288;2023-10-09T03:33:31;96895.94;;;3.91;67.48
50394;BME280;36308;46.312;25.288;2023-10-09T03:35:59;96898.16;;;3.88;66.56
50394;BME280;36308;46.312;25.288;2023-10-09T03:38:26;96894.03;;;3.85;66.87
50394;BME280;36308;46.312;25.288;2023-10-09T03:40:54;96907.75;;;3.82;66.90
50394;BME280;36308;46.312;25.288;2023-10-09T03:43:20;96900.53;;;3.76;66.91
50394;BME280;36308;46.312;25.288;2023-10-09T03:45:47;96907.69;;;3.75;66.50
50394;BME280;36308;46.312;25.288;2023-10-09T03:48:19;96907.25;;;3.72;67.04
50394;BME280;36308;46.312;25.288;2023-10-09T03:50:48;96907.00;;;3.67;67.25
50394;BME280;36308;46.312;25.288;2023-10-09T03:53:17;96917.19;;;3.63;67.08
50394;BME280;36308;46.312;25.288;2023-10-09T03:55:44;96927.41;;;3.59;66.78
50394;BME280;36308;46.312;25.288;2023-10-09T03:58:09;96932.28;;;3.56;66.90
50394;BME280;36308;46.312;25.288;2023-10-09T04:00:40;96922.59;;;3.48;67.09
50394;BME280;36308;46.312;25.288;2023-10-09T04:03:11;96932.41;;;3.48;66.86
50394;BME280;36308;46.312;25.288;2023-10-09T04:05:40;96927.66;;;3.43;66.93
50394;BME280;36308;46.312;25.288;2023-10-09T04:08:08;96933.34;;;3.40;66.25
50394;BME280;36308;46.312;25.288;2023-10-09T04:10:41;96933.47;;;3.32;66.06
50394;BME280;36308;46.312;25.288;2023-10-09T04:13:17;96924.22;;;3.28;66.59
50394;BME280;36308;46.312;25.288;2023-10-09T04:15:49;96922.97;;;3.23;66.23
50394;BME280;36308;46.312;25.288;2023-10-09T04:18:15;96918.22;;;3.19;67.05
50394;BME280;36308;46.312;25.288;2023-10-09T04:20:43;96915.13;;;3.15;66.53
50394;BME280;36308;46.312;25.288;2023-10-09T04:23:09;96926.50;;;3.09;66.82
50394;BME280;36308;46.312;25.288;2023-10-09T04:25:41;96931.56;;;3.04;66.49
50394;BME280;36308;46.312;25.288;2023-10-09T04:28:08;96935.34;;;2.95;66.32
50394;BME280;36308;46.312;25.288;2023-10-09T04:30:38;96943.13;;;2.96;66.56
50394;BME280;36308;46.312;25.288;2023-10-09T04:33:12;96945.69;;;2.90;66.48
50394;BME280;36308;46.312;25.288;2023-10-09T04:36:07;96955.69;;;2.88;66.76
50394;BME280;36308;46.312;25.288;2023-10-09T04:38:46;96942.81;;;2.85;66.78
50394;BME280;36308;46.312;25.288;2023-10-09T04:41:30;96941.53;;;2.80;66.96
50394;BME280;36308;46.312;25.288;2023-10-09T04:44:19;96942.91;;;2.76;67.21
50394;BME280;36308;46.312;25.288;2023-10-09T04:46:49;96944.47;;;2.71;66.62
50394;BME280;36308;46.312;25.288;2023-10-09T04:49:35;96948.50;;;2.67;66.74
50394;BME280;36308;46.312;25.288;2023-10-09T04:52:19;96953.34;;;2.63;67.46
50394;BME280;36308;46.312;25.288;2023-10-09T04:55:05;96954.72;;;2.59;67.21
50394;BME280;36308;46.312;25.288;2023-10-09T04:57:41;96968.38;;;2.56;67.49
50394;BME280;36308;46.312;25.288;2023-10-09T05:00:18;96948.34;;;2.53;67.44
50394;BME280;36308;46.312;25.288;2023-10-09T05:02:50;96946.22;;;2.49;67.90
50394;BME280;36308;46.312;25.288;2023-10-09T05:05:21;96955.19;;;2.48;67.97
50394;BME280;36308;46.312;25.288;2023-10-09T05:08:05;96973.13;;;2.46;67.96
50394;BME280;36308;46.312;25.288;2023-10-09T05:11:01;96965.53;;;2.42;68.30
50394;BME280;36308;46.312;25.288;2023-10-09T05:13:35;96963.88;;;2.41;68.57
50394;BME280;36308;46.312;25.288;2023-10-09T05:16:04;96962.88;;;2.42;68.53
50394;BME280;36308;46.312;25.288;2023-10-09T05:18:30;96956.75;;;2.42;68.36
50394;BME280;36308;46.312;25.288;2023-10-09T05:21:11;96956.56;;;2.43;68.07
50394;BME280;36308;46.312;25.288;2023-10-09T05:23:55;96933.66;;;2.42;68.35
50394;BME280;36308;46.312;25.288;2023-10-09T05:26:46;96933.31;;;2.46;68.68
50394;BME280;36308;46.312;25.288;2023-10-09T05:29:13;96941.28;;;2.46;68.48
50394;BME280;36308;46.312;25.288;2023-10-09T05:31:50;96944.13;;;2.44;68.45
50394;BME280;36308;46.312;25.288;2023-10-09T05:34:34;96943.75;;;2.47;68.61
50394;BME280;36308;46.312;25.288;2023-10-09T05:37:20;96936.63;;;2.48;69.02
50394;BME280;36308;46.312;25.288;2023-10-09T05:39:59;96944.19;;;2.51;69.19
50394;BME280;36308;46.312;25.288;2023-10-09T05:42:31;96935.97;;;2.46;68.98
50394;BME280;36308;46.312;25.288;2023-10-09T05:45:16;96936.88;;;2.53;68.81
50394;BME280;36308;46.312;25.288;2023-10-09T05:47:44;96942.81;;;2.55;69.36
50394;BME280;36308;46.312;25.288;2023-10-09T05:50:32;96949.41;;;2.59;69.51
50394;BME280;36308;46.312;25.288;2023-10-09T05:52:57;96950.03;;;2.61;69.19
50394;BME280;36308;46.312;25.288;2023-10-09T05:55:26;96947.38;;;2.61;69.15
50394;BME280;36308;46.312;25.288;2023-10-09T05:57:53;96954.63;;;2.67;69.35
50394;BME280;36308;46.312;25.288;2023-10-09T06:00:28;96964.88;;;2.70;69.66
50394;BME280;36308;46.312;25.288;2023-10-09T06:03:12;96971.09;;;2.77;69.95
50394;BME280;36308;46.312;25.288;2023-10-09T06:05:51;96968.72;;;2.82;69.23
50394;BME280;36308;46.312;25.288;2023-10-09T06:08:30;96961.81;;;2.88;70.10
50394;BME280;36308;46.312;25.288;2023-10-09T06:11:09;96968.69;;;2.97;69.76
50394;BME280;36308;46.312;25.288;2023-10-09T06:13:55;96981.88;;;3.06;70.07
50394;BME280;36308;46.312;25.288;2023-10-09T06:16:40;96961.94;;;3.16;69.65
50394;BME280;36308;46.312;25.288;2023-10-09T06:19:25;96971.44;;;3.26;70.40
50394;BME280;36308;46.312;25.288;2023-10-09T06:21:58;96958.03;;;3.34;70.19
50394;BME280;36308;46.312;25.288;2023-10-09T06:24:43;96959.19;;;3.46;69.84
50394;BME280;36308;46.312;25.288;2023-10-09T06:27:20;96960.91;;;3.54;69.81
50394;BME280;36308;46.312;25.288;2023-10-09T06:29:55;96956.06;;;3.64;70.00
50394;BME280;36308;46.312;25.288;2023-10-09T06:32:41;96955.13;;;3.72;70.04
50394;BME280;36308;46.312;25.288;2023-10-09T06:35:16;96967.28;;;3.81;69.60
50394;BME280;36308;46.312;25.288;2023-10-09T06:37:45;96964.47;;;3.89;69.20
50394;BME280;36308;46.312;25.288;2023-10-09T06:40:35;96954.94;;;4.01;69.65
50394;BME280;36308;46.312;25.288;2023-10-09T06:43:21;96949.09;;;4.13;69.05
50394;BME280;36308;46.312;25.288;2023-10-09T06:45:47;96952.22;;;4.23;69.54
50394;BME280;36308;46.312;25.288;2023-10-09T06:48:23;96980.16;;;4.34;69.20
50394;BME280;36308;46.312;25.288;2023-10-09T06:51:11;96977.13;;;4.43;68.50
50394;BME280;36308;46.312;25.288;2023-10-09T06:53:54;96971.91;;;4.57;68.81
50394;BME280;36308;46.312;25.288;2023-10-09T06:56:21;96990.84;;;4.75;69.46
50394;BME280;36308;46.312;25.288;2023-10-09T06:59:01;96993.06;;;5.13;69.42
50394;BME280;36308;46.312;25.288;2023-10-09T07:01:30;96995.84;;;5.53;68.91
50394;BME280;36308;46.312;25.288;2023-10-09T07:04:08;96992.41;;;5.93;67.35
50394;BME280;36308;46.312;25.288;2023-10-09T07:06:52;96989.78;;;6.26;65.73
50394;BME280;36308;46.312;25.288;2023-10-09T07:09:18;96992.00;;;6.49;65.12
50394;BME280;36308;46.312;25.288;2023-10-09T07:11:51;96987.84;;;6.73;64.31
50394;BME280;36308;46.312;25.288;2023-10-09T07:14:24;96976.03;;;7.01;63.67
50394;BME280;36308;46.312;25.288;2023-10-09T07:16:57;96981.88;;;7.29;62.49
50394;BME280;36308;46.312;25.288;2023-10-09T07:19:23;96969.63;;;7.47;61.61
50394;BME280;36308;46.312;25.288;2023-10-09T07:22:15;96961.53;;;7.60;60.67
50394;BME280;36308;46.312;25.288;2023-10-09T07:27:20;96969.41;;;7.87;59.79
50394;BME280;36308;46.312;25.288;2023-10-09T07:30:07;96955.09;;;8.00;59.81
50394;BME280;36308;46.312;25.288;2023-10-09T07:35:49;96955.28;;;8.23;58.11
50394;BME280;36308;46.312;25.288;2023-10-09T07:38:23;96966.78;;;8.30;57.57
50394;BME280;36308;46.312;25.288;2023-10-09T07:40:54;96962.97;;;8.38;57.25
50394;BME280;36308;46.312;25.288;2023-10-09T07:43:36;96961.91;;;8.46;57.21
50394;BME280;36308;46.312;25.288;2023-10-09T07:46:17;96957.53;;;8.52;56.61
50394;BME280;36308;46.312;25.288;2023-10-09T07:48:56;96970.19;;;8.63;55.75
50394;BME280;36308;46.312;25.288;2023-10-09T07:51:23;96958.16;;;8.72;55.81
50394;BME280;36308;46.312;25.288;2023-10-09T07:53:52;96946.06;;;8.81;55.37
50394;BME280;36308;46.312;25.288;2023-10-09T07:56:39;96957.09;;;8.92;55.25
50394;BME280;36308;46.312;25.288;2023-10-09T07:59:14;96954.50;;;9.03;54.92
50394;BME280;36308;46.312;25.288;2023-10-09T08:01:48;96952.91;;;9.14;54.83
50394;BME280;36308;46.312;25.288;2023-10-09T08:04:23;96950.88;;;9.28;54.98
50394;BME280;36308;46.312;25.288;2023-10-09T08:07:16;96950.25;;;9.44;54.47
50394;BME280;36308;46.312;25.288;2023-10-09T08:09:48;96936.41;;;9.59;54.93
50394;BME280;36308;46.312;25.288;2023-10-09T08:12:14;96941.94;;;9.76;54.24
50394;BME280;36308;46.312;25.288;2023-10-09T08:15:04;96933.22;;;9.93;54.31
50394;BME280;36308;46.312;25.288;2023-10-09T08:17:57;96934.97;;;10.10;53.35
50394;BME280;36308;46.312;25.288;2023-10-09T08:20:44;96940.25;;;10.29;53.17
50394;BME280;36308;46.312;25.288;2023-10-09T08:23:27;96934.19;;;10.45;52.53
50394;BME280;36308;46.312;25.288;2023-10-09T08:26:14;96924.03;;;10.59;52.70
50394;BME280;36308;46.312;25.288;2023-10-09T08:28:40;96918.88;;;10.69;51.57
50394;BME280;36308;46.312;25.288;2023-10-09T08:31:12;96921.19;;;10.78;50.85
50394;BME280;36308;46.312;25.288;2023-10-09T08:33:47;96911.47;;;10.88;51.06
50394;BME280;36308;46.312;25.288;2023-10-09T08:36:26;96911.66;;;10.99;49.67
50394;BME280;36308;46.312;25.288;2023-10-09T08:39:02;96904.75;;;11.03;49.36
50394;BME280;36308;46.312;25.288;2023-10-09T08:41:42;96907.06;;;11.11;48.87
50394;BME280;36308;46.312;25.288;2023-10-09T08:44:11;96908.56;;;11.19;48.86
50394;BME280;36308;46.312;25.288;2023-10-09T08:46:37;96905.22;;;11.28;48.46
50394;BME280;36308;46.312;25.288;2023-10-09T08:49:06;96891.97;;;11.39;47.87
50394;BME280;36308;46.312;25.288;2023-10-09T08:51:33;96893.53;;;11.51;48.71
50394;BME280;36308;46.312;25.288;2023-10-09T08:54:00;96896.97;;;11.64;48.33
50394;BME280;36308;46.312;25.288;2023-10-09T08:56:26;96898.63;;;11.82;48.53
50394;BME280;36308;46.312;25.288;2023-10-09T08:58:57;96884.38;;;11.98;48.38
50394;BME280;36308;46.312;25.288;2023-10-09T09:01:24;96877.59;;;12.12;48.35
50394;BME280;36308;46.312;25.288;2023-10-09T09:03:51;96884.75;;;12.24;48.40
50394;BME280;36308;46.312;25.288;2023-10-09T09:06:21;96881.75;;;12.37;47.93
50394;BME280;36308;46.312;25.288;2023-10-09T09:08:50;96888.91;;;12.48;47.69
50394;BME280;36308;46.312;25.288;2023-10-09T09:11:20;96881.47;;;12.56;46.66
50394;BME280;36308;46.312;25.288;2023-10-09T09:16:24;96874.22;;;12.61;45.31
50394;BME280;36308;46.312;25.288;2023-10-09T09:19:06;96858.31;;;12.60;45.63
50394;BME280;36308;46.312;25.288;2023-10-09T09:21:36;96848.09;;;12.62;45.87
50394;BME280;36308;46.312;25.288;2023-10-09T09:24:10;96854.63;;;12.66;45.15
50394;BME280;36308;46.312;25.288;2023-10-09T09:26:56;96847.56;;;12.65;44.59
50394;BME280;36308;46.312;25.288;2023-10-09T09:32:12;96843.69;;;12.78;44.49
50394;BME280;36308;46.312;25.288;2023-10-09T09:34:48;96830.06;;;12.89;44.78
50394;BME280;36308;46.312;25.288;2023-10-09T09:37:33;96821.00;;;13.01;44.91
50394;BME280;36308;46.312;25.288;2023-10-09T09:40:08;96801.72;;;13.14;44.68
50394;BME280;36308;46.312;25.288;2023-10-09T09:42:52;96800.13;;;13.18;44.55
50394;BME280;36308;46.312;25.288;2023-10-09T09:45:22;96787.75;;;13.22;44.46
50394;BME280;36308;46.312;25.288;2023-10-09T09:47:50;96791.63;;;13.31;44.54
50394;BME280;36308;46.312;25.288;2023-10-09T09:50:20;96801.47;;;13.43;43.87
50394;BME280;36308;46.312;25.288;2023-10-09T09:52:53;96794.47;;;13.47;43.69
50394;BME280;36308;46.312;25.288;2023-10-09T09:55:19;96786.09;;;13.48;43.69
50394;BME280;36308;46.312;25.288;2023-10-09T09:57:56;96790.78;;;13.58;44.03
50394;BME280;36308;46.312;25.288;2023-10-09T10:00:25;96790.38;;;13.77;43.31
50394;BME280;36308;46.312;25.288;2023-10-09T10:03:14;96786.41;;;13.89;43.33
50394;BME280;36308;46.312;25.288;2023-10-09T10:05:42;96766.75;;;14.04;43.54
50394;BME280;36308;46.312;25.288;2023-10-09T10:08:15;96764.16;;;14.20;43.76
50394;BME280;36308;46.312;25.288;2023-10-09T10:10:45;96761.00;;;14.38;43.21
50394;BME280;36308;46.312;25.288;2023-10-09T10:13:15;96740.78;;;14.56;43.14
50394;BME280;36308;46.312;25.288;2023-10-09T10:18:22;96728.16;;;14.82;42.07
50394;BME280;36308;46.312;25.288;2023-10-09T10:23:44;96717.88;;;15.00;42.24
50394;BME280;36308;46.312;25.288;2023-10-09T10:26:17;96708.69;;;15.06;41.46
50394;BME280;36308;46.312;25.288;2023-10-09T10:28:43;96717.91;;;15.10;40.57
50394;BME280;36308;46.312;25.288;2023-10-09T10:31:11;96717.91;;;15.15;39.51
50394;BME280;36308;46.312;25.288;2023-10-09T10:36:26;96702.44;;;15.10;39.32
50394;BME280;36308;46.312;25.288;2023-10-09T10:39:03;96688.66;;;15.12;39.19
50394;BME280;36308;46.312;25.288;2023-10-09T10:41:29;96676.75;;;15.13;39.00
50394;BME280;36308;46.312;25.288;2023-10-09T10:44:01;96671.03;;;15.14;38.73
50394;BME280;36308;46.312;25.288;2023-10-09T10:46:47;96664.28;;;15.17;37.63
50394;BME280;36308;46.312;25.288;2023-10-09T10:49:17;96655.06;;;15.18;37.95
50394;BME280;36308;46.312;25.288;2023-10-09T10:51:47;96666.97;;;15.22;37.92
50394;BME280;36308;46.312;25.288;2023-10-09T10:54:21;96674.84;;;15.24;38.11
50394;BME280;36308;46.312;25.288;2023-10-09T10:57:01;96682.16;;;15.28;38.23
50394;BME280;36308;46.312;25.288;2023-10-09T10:59:39;96674.28;;;15.27;36.73
50394;BME280;36308;46.312;25.288;2023-10-09T11:02:11;96673.50;;;15.21;35.70
50394;BME280;36308;46.312;25.288;2023-10-09T11:04:37;96674.31;;;15.11;36.46
50394;BME280;36308;46.312;25.288;2023-10-09T11:07:10;96668.63;;;15.03;36.27
50394;BME280;36308;46.312;25.288;2023-10-09T11:09:52;96671.88;;;14.94;36.37
50394;BME280;36308;46.312;25.288;2023-10-09T11:12:51;96679.41;;;14.87;36.33
50394;BME280;36308;46.312;25.288;2023-10-09T11:15:35;96677.25;;;14.74;36.50
50394;BME280;36308;46.312;25.288;2023-10-09T11:18:13;96670.75;;;14.70;36.52
50394;BME280;36308;46.312;25.288;2023-10-09T11:20:51;96659.34;;;14.63;36.51
50394;BME280;36308;46.312;25.288;2023-10-09T11:23:30;96659.09;;;14.59;37.12
50394;BME280;36308;46.312;25.288;2023-10-09T11:25:59;96649.59;;;14.57;37.06
50394;BME280;36308;46.312;25.288;2023-10-09T11:28:44;96640.41;;;14.58;36.86
50394;BME280;36308;46.312;25.288;2023-10-09T11:31:23;96636.84;;;14.52;35.83
50394;BME280;36308;46.312;25.288;2023-10-09T11:33:52;96641.47;;;14.51;36.35
50394;BME280;36308;46.312;25.288;2023-10-09T11:36:19;96625.78;;;14.53;36.55
50394;BME280;36308;46.312;25.288;2023-10-09T11:38:57;96633.38;;;14.57;37.04
50394;BME280;36308;46.312;25.288;2023-10-09T11:41:42;96643.13;;;14.63;37.65
50394;BME280;36308;46.312;25.288;2023-10-09T11:44:10;96649.63;;;14.67;37.33
50394;BME280;36308;46.312;25.288;2023-10-09T11:47:03;96645.84;;;14.68;37.33
50394;BME280;36308;46.312;25.288;2023-10-09T11:52:31;96660.44;;;14.67;36.79
50394;BME280;36308;46.312;25.288;2023-10-09T11:54:58;96649.63;;;14.62;36.45
50394;BME280;36308;46.312;25.288;2023-10-09T11:57:25;96653.63;;;14.54;36.48
50394;BME280;36308;46.312;25.288;2023-10-09T12:03:17;96631.72;;;14.40;37.33
50394;BME280;36308;46.312;25.288;2023-10-09T12:05:47;96641.16;;;14.38;37.15
50394;BME280;36308;46.312;25.288;2023-10-09T12:08:13;96634.38;;;14.35;37.50
50394;BME280;36308;46.312;25.288;2023-10-09T12:11:01;96632.78;;;14.34;38.11
50394;BME280;36308;46.312;25.288;2023-10-09T12:13:33;96636.03;;;14.36;38.10
50394;BME280;36308;46.312;25.288;2023-10-09T12:15:59;96623.56;;;14.35;37.61
50394;BME280;36308;46.312;25.288;2023-10-09T12:18:24;96620.56;;;14.31;37.59
50394;BME280;36308;46.312;25.288;2023-10-09T12:20:51;96618.16;;;14.30;37.81
50394;BME280;36308;46.312;25.288;2023-10-09T12:23:19;96599.47;;;14.28;38.06
50394;BME280;36308;46.312;25.288;2023-10-09T12:25:45;96600.28;;;14.29;38.12
50394;BME280;36308;46.312;25.288;2023-10-09T12:28:13;96592.19;;;14.29;38.79
50394;BME280;36308;46.312;25.288;2023-10-09T12:30:39;96584.59;;;14.31;38.68
50394;BME280;36308;46.312;25.288;2023-10-09T12:33:05;96574.06;;;14.34;38.51
50394;BME280;36308;46.312;25.288;2023-10-09T12:35:37;96575.72;;;14.41;38.96
50394;BME280;36308;46.312;25.288;2023-10-09T12:38:06;96569.22;;;14.47;38.92
50394;BME280;36308;46.312;25.288;2023-10-09T12:40:36;96568.41;;;14.51;38.87
50394;BME280;36308;46.312;25.288;2023-10-09T12:43:03;96557.31;;;14.53;39.21
50394;BME280;36308;46.312;25.288;2023-10-09T12:45:29;96555.16;;;14.55;38.96
50394;BME280;36308;46.312;25.288;2023-10-09T12:48:00;96551.91;;;14.53;38.67
50394;BME280;36308;46.312;25.288;2023-10-09T12:50:33;96552.16;;;14.51;38.42
50394;BME280;36308;46.312;25.288;2023-10-09T12:53:00;96544.84;;;14.52;38.57
50394;BME280;36308;46.312;25.288;2023-10-09T12:55:41;96534.84;;;14.52;38.65
50394;BME280;36308;46.312;25.288;2023-10-09T12:58:07;96525.66;;;14.53;38.93
50394;BME280;36308;46.312;25.288;2023-10-09T13:00:37;96517.53;;;14.53;38.76
50394;BME280;36308;46.312;25.288;2023-10-09T13:03:08;96516.75;;;14.53;38.85
50394;BME280;36308;46.312;25.288;2023-10-09T13:05:53;96518.59;;;14.52;38.88
50394;BME280;36308;46.312;25.288;2023-10-09T13:08:26;96509.94;;;14.50;38.81
50394;BME280;36308;46.312;25.288;2023-10-09T13:11:05;96505.63;;;14.44;38.65
50394;BME280;36308;46.312;25.288;2023-10-09T13:13:41;96492.66;;;14.36;38.37
50394;BME280;36308;46.312;25.288;2023-10-09T13:16:09;96505.34;;;14.35;38.68
50394;BME280;36308;46.312;25.288;2023-10-09T13:18:38;96502.41;;;14.32;38.54
50394;BME280;36308;46.312;25.288;2023-10-09T13:21:04;96489.97;;;14.26;39.00
50394;BME280;36308;46.312;25.288;2023-10-09T13:23:31;96486.72;;;14.24;39.02
50394;BME280;36308;46.312;25.288;2023-10-09T13:26:07;96479.13;;;14.21;39.28
50394;BME280;36308;46.312;25.288;2023-10-09T13:29:05;96478.31;;;14.20;39.35
50394;BME280;36308;46.312;25.288;2023-10-09T13:31:34;96468.31;;;14.21;39.49
50394;BME280;36308;46.312;25.288;2023-10-09T13:34:03;96467.50;;;14.20;39.33
50394;BME280;36308;46.312;25.288;2023-10-09T13:36:32;96478.31;;;14.20;39.42
50394;BME280;36308;46.312;25.288;2023-10-09T13:39:03;96485.09;;;14.18;39.06
50394;BME280;36308;46.312;25.288;2023-10-09T13:41:49;96487.25;;;14.15;39.16
50394;BME280;36308;46.312;25.288;2023-10-09T13:44:15;96474.25;;;14.12;39.46
50394;BME280;36308;46.312;25.288;2023-10-09T13:46:40;96463.69;;;14.11;39.16
50394;BME280;36308;46.312;25.288;2023-10-09T13:49:10;96461.00;;;14.06;39.16
50394;BME280;36308;46.312;25.288;2023-10-09T13:51:40;96463.97;;;14.04;39.53
50394;BME280;36308;46.312;25.288;2023-10-09T13:54:16;96453.69;;;14.01;39.66
50394;BME280;36308;46.312;25.288;2023-10-09T13:56:54;96448.00;;;13.98;39.78
50394;BME280;36308;46.312;25.288;2023-10-09T13:59:22;96442.31;;;13.94;39.49